Time;durP1;ratioP1;P1;durP2;ratioP2;P2;SDS_P1;SDS_P2;PMS_P1;PMS_P2;Temp;Humidity;BMP_temperature;BMP_pressure;BME280_temperature;BME280_humidity;BME280_pressure;Samples;Min_cycle;Max_cycle;Signal;HPM_P1;HPM_P2
2022/06/08 00:00:06;;;;;;;1.13;0.55;;;22.50;54.40;;;;;;5103265;28;20012;-55
2022/06/08 00:02:33;;;;;;;1.10;0.70;;;22.50;54.40;;;;;;5102559;28;20020;-56
2022/06/08 00:04:59;;;;;;;0.73;0.50;;;22.50;54.40;;;;;;5100667;28;20466;-56
2022/06/08 00:07:25;;;;;;;1.00;0.63;;;22.50;54.40;;;;;;5082315;28;20020;-53
2022/06/08 00:09:52;;;;;;;0.93;0.68;;;22.50;54.40;;;;;;5101472;28;20020;-56
2022/06/08 00:12:19;;;;;;;1.88;0.80;;;22.50;54.40;;;;;;5102119;28;20051;-53
2022/06/08 00:14:45;;;;;;;1.52;0.73;;;22.50;54.40;;;;;;5102126;28;20063;-58
2022/06/08 00:17:12;;;;;;;1.40;0.70;;;22.50;54.40;;;;;;5101066;28;20475;-52
2022/06/08 00:19:37;;;;;;;1.23;0.63;;;22.50;54.40;;;;;;5101615;28;20024;-58
2022/06/08 00:22:04;;;;;;;1.35;0.50;;;22.50;54.40;;;;;;5102038;28;20572;-58
2022/06/08 00:24:30;;;;;;;0.82;0.70;;;22.50;54.40;;;;;;5102441;28;20020;-57
2022/06/08 00:26:57;;;;;;;1.45;0.80;;;22.50;54.40;;;;;;5102323;28;20027;-54
2022/06/08 00:29:23;;;;;;;1.05;0.90;;;22.40;54.40;;;;;;5102307;28;20013;-57
2022/06/08 00:31:49;;;;;;;1.45;0.80;;;22.50;54.40;;;;;;5102673;28;20471;-58
2022/06/08 00:34:15;;;;;;;1.90;0.70;;;22.50;54.40;;;;;;5102332;28;20026;-57
2022/06/08 00:36:41;;;;;;;0.75;0.50;;;22.50;54.40;;;;;;5102400;28;20048;-58
2022/06/08 00:39:07;;;;;;;0.70;0.43;;;22.50;54.40;;;;;;5102207;28;20012;-58
2022/06/08 00:41:43;;;;;;;1.63;0.73;;;22.50;54.40;;;;;;5102275;28;20076;-58
2022/06/08 00:44:40;;;;;;;0.47;0.47;;;22.40;54.40;;;;;;5101303;28;20024;-53
2022/06/08 00:47:07;;;;;;;0.75;0.60;;;22.40;54.40;;;;;;5083139;28;20012;-56
2022/06/08 00:49:50;;;;;;;1.23;0.63;;;22.40;54.40;;;;;;5082117;28;20016;-56
2022/06/08 00:52:16;;;;;;;0.70;0.60;;;22.40;54.30;;;;;;5099942;28;20012;-53
2022/06/08 00:54:45;;;;;;;0.85;0.65;;;22.40;54.30;;;;;;5100072;28;20016;-56
2022/06/08 00:57:13;;;;;;;1.05;0.55;;;22.40;54.40;;;;;;5099488;28;20024;-55
2022/06/08 00:59:41;;;;;;;1.52;0.90;;;22.40;54.40;;;;;;5099199;28;20497;-58
2022/06/08 01:02:07;;;;;;;1.08;0.75;;;22.40;54.40;;;;;;5081222;28;20046;-56
2022/06/08 01:04:34;;;;;;;0.80;0.60;;;22.40;54.40;;;;;;5100131;28;20462;-56
2022/06/08 01:06:59;;;;;;;0.80;0.50;;;22.50;54.50;;;;;;5100987;28;20488;-54
2022/06/08 01:09:30;;;;;;;1.77;0.63;;;22.40;54.40;;;;;;5082686;28;20074;-58
2022/06/08 01:11:58;;;;;;;1.35;0.70;;;22.50;54.40;;;;;;5082740;28;20044;-58
2022/06/08 01:14:25;;;;;;;0.68;0.50;;;22.40;54.30;;;;;;5082893;28;20012;-56
2022/06/08 01:17:18;;;;;;;1.00;0.60;;;22.40;54.40;;;;;;5081963;28;20066;-58
2022/06/08 01:19:45;;;;;;;1.73;0.60;;;22.40;54.40;;;;;;5094609;28;20106;-55
2022/06/08 01:22:14;;;;;;;2.03;0.55;;;22.40;54.40;;;;;;5098204;28;20048;-55
2022/06/08 01:24:40;;;;;;;0.93;0.60;;;22.40;54.40;;;;;;5098519;28;20474;-56
2022/06/08 01:27:09;;;;;;;1.38;0.75;;;22.40;54.40;;;;;;5081568;28;20009;-58
2022/06/08 01:30:11;;;;;;;1.00;0.60;;;22.40;54.40;;;;;;5099317;28;20012;-57
2022/06/08 01:32:55;;;;;;;0.85;0.57;;;22.40;54.40;;;;;;5098649;28;20032;-57
2022/06/08 01:35:32;;;;;;;1.02;0.52;;;22.40;54.40;;;;;;5081452;28;20482;-57
2022/06/08 01:38:36;;;;;;;1.02;0.70;;;22.40;54.40;;;;;;5065039;28;20023;-57
2022/06/08 01:41:09;;;;;;;0.55;0.50;;;22.40;54.40;;;;;;4995595;28;20018;-56
2022/06/08 01:43:39;;;;;;;1.15;0.70;;;22.40;54.40;;;;;;4978760;28;20084;-57
2022/06/08 01:46:15;;;;;;;1.48;0.80;;;22.40;54.40;;;;;;4978602;28;20022;-54
2022/06/08 01:49:00;;;;;;;1.20;0.65;;;22.40;54.40;;;;;;4994433;28;20039;-54
2022/06/08 01:51:47;;;;;;;1.63;0.90;;;22.40;54.40;;;;;;4979874;28;20026;-52
2022/06/08 01:54:30;;;;;;;0.50;0.50;;;22.40;54.40;;;;;;4979101;28;20098;-57
2022/06/08 01:57:02;;;;;;;0.95;0.80;;;22.40;54.50;;;;;;4994106;28;20026;-55
2022/06/08 01:59:38;;;;;;;0.70;0.60;;;22.40;54.40;;;;;;4993933;28;20098;-57
2022/06/08 02:02:08;;;;;;;1.83;0.77;;;22.40;54.50;;;;;;4977847;28;20039;-57
2022/06/08 02:04:59;;;;;;;3.20;0.80;;;22.30;54.40;;;;;;4994043;28;20022;-54
2022/06/08 02:07:28;;;;;;;;;;;22.30;54.40;;;;;;4994299;28;20090;-55
2022/06/08 02:10:03;;;;;;;1.02;0.52;;;22.30;54.40;;;;;;5012875;28;19964;-56
2022/06/08 02:12:30;;;;;;;0.80;0.60;;;22.30;54.30;;;;;;4996399;28;20034;-54
2022/06/08 02:15:08;;;;;;;0.63;0.50;;;22.40;54.40;;;;;;5036862;28;20057;-56
2022/06/08 02:17:43;;;;;;;0.98;0.85;;;22.30;54.40;;;;;;5062292;28;20020;-56
2022/06/08 02:20:19;;;;;;;1.17;0.82;;;22.30;54.40;;;;;;5079198;28;20023;-57
2022/06/08 02:23:10;;;;;;;1.27;0.70;;;22.30;54.40;;;;;;5036697;28;1194457;-50
2022/06/08 02:25:49;;;;;;;0.60;0.60;;;22.30;54.40;;;;;;5074247;28;20071;-55
2022/06/08 02:28:34;;;;;;;0.80;0.60;;;22.30;54.40;;;;;;5096933;28;20019;-57
2022/06/08 02:31:18;;;;;;;0.77;0.68;;;22.30;54.40;;;;;;5097033;28;20027;-57
2022/06/08 02:36:37;;;;;;;0.77;0.52;;;22.30;54.40;;;;;;5081710;28;20506;-56
2022/06/08 02:39:05;;;;;;;0.50;0.40;;;22.30;54.40;;;;;;5096903;28;20656;-56
2022/06/08 02:41:31;;;;;;;1.08;0.70;;;22.30;54.40;;;;;;5096502;28;20024;-54
2022/06/08 02:43:59;;;;;;;0.73;0.57;;;22.30;54.50;;;;;;5061771;28;20020;-56
2022/06/08 02:46:47;;;;;;;1.33;0.73;;;22.30;54.50;;;;;;5061197;28;20027;-55
2022/06/08 02:49:13;;;;;;;1.90;0.70;;;22.30;54.50;;;;;;5079354;28;20016;-54
2022/06/08 02:51:43;;;;;;;0.75;0.57;;;22.30;54.40;;;;;;5076851;28;20019;-56
2022/06/08 02:54:17;;;;;;;0.95;0.50;;;22.30;54.40;;;;;;5077044;28;20020;-54
2022/06/08 02:56:54;;;;;;;1.27;0.82;;;22.30;54.40;;;;;;5094293;28;20023;-54
2022/06/08 02:59:55;;;;;;;0.80;0.60;;;22.30;54.40;;;;;;5077634;28;20149;-56
2022/06/08 03:02:34;;;;;;;1.00;0.60;;;22.30;54.50;;;;;;5094429;28;20024;-53
2022/06/08 03:05:37;;;;;;;1.13;0.73;;;22.30;54.40;;;;;;5076705;28;20077;-56
2022/06/08 03:08:10;;;;;;;0.80;0.70;;;22.30;54.50;;;;;;4993116;28;20507;-53
2022/06/08 03:10:37;;;;;;;0.93;0.70;;;22.30;54.40;;;;;;4993247;28;20031;-54
2022/06/08 03:13:09;;;;;;;1.00;0.60;;;22.30;54.50;;;;;;4977457;28;20022;-54
2022/06/08 03:15:35;;;;;;;1.27;0.75;;;22.30;54.50;;;;;;4977716;28;20057;-56
2022/06/08 03:18:01;;;;;;;0.47;0.40;;;22.20;54.50;;;;;;4993448;28;20036;-56
2022/06/08 03:20:28;;;;;;;0.80;0.63;;;22.20;54.50;;;;;;4993305;28;20106;-52
2022/06/08 03:22:54;;;;;;;0.85;0.57;;;22.20;54.50;;;;;;4994345;28;20054;-54
2022/06/08 03:25:21;;;;;;;1.00;0.60;;;22.30;54.50;;;;;;4996604;28;20110;-57
2022/06/08 03:27:47;;;;;;;0.70;0.60;;;22.20;54.50;;;;;;4996400;28;20040;-53
2022/06/08 03:30:13;;;;;;;1.80;0.70;;;22.20;54.50;;;;;;4997913;28;20158;-54
2022/06/08 03:32:39;;;;;;;0.85;0.57;;;22.20;54.50;;;;;;4998346;28;20041;-56
2022/06/08 03:35:05;;;;;;;2.00;0.80;;;22.20;54.50;;;;;;4997964;28;20389;-57
2022/06/08 03:37:31;;;;;;;1.25;0.70;;;22.20;54.50;;;;;;4982150;28;20039;-57
2022/06/08 03:39:58;;;;;;;1.20;0.70;;;22.20;54.60;;;;;;4982644;28;20034;-56
2022/06/08 03:42:24;;;;;;;1.67;0.65;;;22.20;54.50;;;;;;5002128;28;20085;-57
2022/06/08 03:44:50;;;;;;;0.73;0.63;;;22.20;54.50;;;;;;5099823;28;20012;-53
2022/06/08 03:47:18;;;;;;;1.02;0.50;;;22.20;54.60;;;;;;5081493;28;20016;-56
2022/06/08 03:49:44;;;;;;;2.90;0.95;;;22.20;54.60;;;;;;5080351;28;20088;-57
2022/06/08 03:52:18;;;;;;;0.80;0.57;;;22.20;54.60;;;;;;5080257;28;20039;-57
2022/06/08 03:54:47;;;;;;;1.27;0.82;;;22.20;54.60;;;;;;5097941;28;20038;-52
2022/06/08 03:57:14;;;;;;;0.60;0.60;;;22.20;54.60;;;;;;5097263;28;20039;-51
2022/06/08 03:59:40;;;;;;;0.82;0.65;;;22.20;54.60;;;;;;5079844;28;20040;-56
2022/06/08 04:02:07;;;;;;;2.05;0.70;;;22.20;54.60;;;;;;5079793;28;20020;-59
2022/06/08 04:04:33;;;;;;;0.90;0.57;;;22.20;55.20;;;;;;5098438;28;20027;-57
2022/06/08 04:06:59;;;;;;;0.70;0.70;;;22.20;54.60;;;;;;5098732;28;20043;-57
2022/06/08 04:09:24;;;;;;;0.93;0.50;;;22.20;54.60;;;;;;5080292;28;20017;-58
2022/06/08 04:11:50;;;;;;;1.85;0.63;;;22.20;54.60;;;;;;5098858;28;20086;-53
2022/06/08 04:14:16;;;;;;;0.75;0.60;;;22.20;54.60;;;;;;5098894;28;20027;-56
2022/06/08 04:16:43;;;;;;;5.68;0.70;;;22.20;54.60;;;;;;5098676;28;20027;-51
2022/06/08 04:19:09;;;;;;;1.92;0.73;;;22.20;54.60;;;;;;5098340;28;20078;-57
2022/06/08 04:21:35;;;;;;;2.03;0.80;;;22.20;54.70;;;;;;5097619;28;20024;-54
2022/06/08 04:24:01;;;;;;;0.85;0.73;;;22.20;54.70;;;;;;5097612;28;20028;-56
2022/06/08 04:26:28;;;;;;;3.33;0.77;;;22.20;54.70;;;;;;5080256;28;20032;-57
2022/06/08 04:28:54;;;;;;;1.40;0.82;;;22.10;54.60;;;;;;5080038;28;20067;-57
2022/06/08 04:31:20;;;;;;;1.60;0.80;;;22.10;54.70;;;;;;5063256;28;20024;-58
2022/06/08 04:33:46;;;;;;;0.95;0.73;;;22.10;54.70;;;;;;5097033;28;20046;-53
2022/06/08 04:36:13;;;;;;;1.20;0.80;;;22.10;54.70;;;;;;5097344;28;20020;-54
2022/06/08 04:38:38;;;;;;;1.85;0.90;;;22.20;54.80;;;;;;5097919;28;21092;-53
2022/06/08 04:41:04;;;;;;;0.82;0.70;;;22.10;54.70;;;;;;5097221;28;20023;-55
2022/06/08 04:43:30;;;;;;;1.10;0.70;;;22.10;54.70;;;;;;5096780;28;20028;-56
2022/06/08 04:45:57;;;;;;;1.10;0.73;;;22.20;54.80;;;;;;5097217;28;20012;-57
2022/06/08 04:48:23;;;;;;;1.20;0.63;;;22.20;55.30;;;;;;5097147;28;20095;-50
2022/06/08 04:50:49;;;;;;;1.70;0.80;;;22.10;54.70;;;;;;5097399;28;20084;-54
2022/06/08 04:53:16;;;;;;;2.00;0.70;;;22.20;54.70;;;;;;5097562;28;20024;-54
2022/06/08 04:55:42;;;;;;;1.80;0.80;;;22.20;54.70;;;;;;5097397;28;20008;-52
2022/06/08 04:58:08;;;;;;;1.05;0.90;;;22.20;54.70;;;;;;5078779;28;20103;-53
2022/06/08 05:00:34;;;;;;;0.90;0.60;;;22.20;55.20;;;;;;5096963;28;20386;-52
2022/06/08 05:03:00;;;;;;;1.83;0.80;;;22.10;54.70;;;;;;5096709;28;20020;-56
2022/06/08 05:05:29;;;;;;;1.00;0.80;;;22.20;54.70;;;;;;5096952;28;20016;-51
2022/06/08 05:07:55;;;;;;;0.93;0.80;;;22.10;54.70;;;;;;5097047;28;20012;-57
2022/06/08 05:10:22;;;;;;;2.00;0.80;;;22.10;54.70;;;;;;5097676;28;20069;-57
2022/06/08 05:12:48;;;;;;;1.20;0.80;;;22.20;54.70;;;;;;5097479;28;20081;-54
2022/06/08 05:15:17;;;;;;;2.35;0.80;;;22.10;54.70;;;;;;5097065;28;20470;-57
2022/06/08 05:17:42;;;;;;;1.70;0.70;;;22.10;54.70;;;;;;5079355;28;20012;-57
2022/06/08 05:20:09;;;;;;;1.80;0.73;;;22.20;54.70;;;;;;5078818;28;20466;-57
2022/06/08 05:22:37;;;;;;;1.30;0.80;;;22.20;54.70;;;;;;5080348;28;20062;-56
2022/06/08 05:25:06;;;;;;;1.20;0.60;;;22.20;54.70;;;;;;5099478;28;20716;-58
2022/06/08 05:27:33;;;;;;;1.00;0.90;;;22.20;54.70;;;;;;5099277;28;20077;-57
2022/06/08 05:29:58;;;;;;;1.50;0.70;;;22.10;54.70;;;;;;5098972;28;20107;-57
2022/06/08 05:32:25;;;;;;;0.95;0.75;;;22.10;54.70;;;;;;5099650;28;20083;-57
2022/06/08 05:34:50;;;;;;;1.30;0.88;;;22.10;54.70;;;;;;5080822;28;20485;-57
2022/06/08 05:37:16;;;;;;;2.33;0.80;;;22.10;54.70;;;;;;5097913;28;20024;-51
2022/06/08 05:39:42;;;;;;;1.33;0.80;;;22.10;54.70;;;;;;5096352;28;20012;-55
2022/06/08 05:42:08;;;;;;;2.22;1.05;;;22.20;54.70;;;;;;5095743;28;20024;-54
2022/06/08 05:44:35;;;;;;;1.15;0.80;;;22.10;54.70;;;;;;5096199;28;20043;-57
2022/06/08 05:47:02;;;;;;;1.02;0.80;;;22.10;54.70;;;;;;5095835;28;20113;-56
2022/06/08 05:49:28;;;;;;;1.65;0.80;;;22.10;54.70;;;;;;5096425;28;20348;-57
2022/06/08 05:51:54;;;;;;;2.08;0.70;;;22.10;54.70;;;;;;5096227;28;20027;-56
2022/06/08 05:54:19;;;;;;;1.20;0.75;;;22.20;54.70;;;;;;5077803;28;20531;-52
2022/06/08 05:56:46;;;;;;;1.13;0.88;;;22.10;54.70;;;;;;5094853;28;20103;-55
2022/06/08 05:59:12;;;;;;;1.17;0.70;;;22.10;54.70;;;;;;5060892;28;20016;-55
2022/06/08 06:01:39;;;;;;;2.00;0.90;;;22.10;54.70;;;;;;5076301;28;20020;-56
2022/06/08 06:04:07;;;;;;;2.70;0.77;;;22.10;54.70;;;;;;5058573;28;20425;-54
2022/06/08 06:06:33;;;;;;;1.05;0.60;;;22.20;54.80;;;;;;5094319;28;20050;-52
2022/06/08 06:08:59;;;;;;;2.05;0.80;;;22.10;54.70;;;;;;5093174;28;20008;-54
2022/06/08 06:11:25;;;;;;;1.50;0.80;;;22.10;54.70;;;;;;5074738;28;20011;-54
2022/06/08 06:13:51;;;;;;;1.40;0.90;;;22.10;54.70;;;;;;5092929;28;20554;-53
2022/06/08 06:16:16;;;;;;;2.58;1.00;;;22.10;54.70;;;;;;5057393;28;20024;-52
2022/06/08 06:18:43;;;;;;;1.30;0.80;;;22.10;54.80;;;;;;5092113;28;20008;-53
2022/06/08 06:21:20;;;;;;;2.03;0.82;;;22.10;55.30;;;;;;5089659;28;20024;-55
2022/06/08 06:23:46;;;;;;;7.93;1.35;;;22.20;55.00;;;;;;5090202;28;20043;-51
2022/06/08 06:26:11;;;;;;;12.05;2.40;;;22.20;56.30;;;;;;5091252;28;20028;-53
2022/06/08 06:28:37;;;;;;;13.80;3.58;;;22.40;56.70;;;;;;5092270;28;20080;-56
2022/06/08 06:31:03;;;;;;;18.70;4.07;;;22.40;57.50;;;;;;5073894;28;20358;-55
2022/06/08 06:33:29;;;;;;;16.75;4.05;;;22.40;58.50;;;;;;5074717;28;20036;-56
2022/06/08 06:35:57;;;;;;;21.70;4.68;;;22.60;58.90;;;;;;5074288;28;20093;-58
2022/06/08 06:38:23;;;;;;;11.75;2.47;;;22.70;59.20;;;;;;5092446;28;20020;-57
2022/06/08 06:40:48;;;;;;;22.08;3.50;;;22.50;58.50;;;;;;5075005;28;20132;-58
2022/06/08 06:43:17;;;;;;;9.18;2.30;;;22.10;59.30;;;;;;5091608;28;20060;-55
2022/06/08 06:45:43;;;;;;;6.95;2.50;;;22.00;59.90;;;;;;5092237;28;20012;-56
2022/06/08 06:48:09;;;;;;;8.00;1.80;;;21.90;60.50;;;;;;5074322;28;20398;-54
2022/06/08 06:50:35;;;;;;;15.25;2.58;;;21.90;60.20;;;;;;5091684;28;20016;-58
2022/06/08 06:53:01;;;;;;;9.20;2.15;;;22.00;60.10;;;;;;5057102;28;20024;-58
2022/06/08 06:55:29;;;;;;;8.40;1.88;;;22.00;60.00;;;;;;5057357;28;20129;-57
2022/06/08 06:57:55;;;;;;;8.65;2.05;;;22.10;59.90;;;;;;5075432;28;20112;-57
2022/06/08 07:00:21;;;;;;;57.33;5.45;;;22.20;59.90;;;;;;5095659;28;20051;-55
2022/06/08 07:02:47;;;;;;;15.45;2.38;;;22.40;60.30;;;;;;5077105;28;20287;-58
2022/06/08 07:05:20;;;;;;;19.92;2.42;;;22.60;60.20;;;;;;5095692;28;20062;-59
2022/06/08 07:07:46;;;;;;;14.10;2.20;;;22.70;60.20;;;;;;5095219;28;20008;-57
2022/06/08 07:10:12;;;;;;;9.63;2.40;;;22.80;60.60;;;;;;5076791;28;20348;-57
2022/06/08 07:12:37;;;;;;;25.35;2.97;;;22.90;60.60;;;;;;5094656;28;20036;-54
2022/06/08 07:15:04;;;;;;;15.85;2.53;;;23.00;60.30;;;;;;5076678;28;20474;-55
2022/06/08 07:17:29;;;;;;;24.83;3.55;;;23.00;60.10;;;;;;5076450;28;20027;-54
2022/06/08 07:19:55;;;;;;;32.30;3.95;;;22.90;60.10;;;;;;5095106;28;20020;-54
2022/06/08 07:22:21;;;;;;;25.17;3.55;;;22.90;60.40;;;;;;5076793;28;20532;-55
2022/06/08 07:24:47;;;;;;;26.80;3.50;;;22.80;60.50;;;;;;5094967;28;21079;-56
2022/06/08 07:27:12;;;;;;;25.15;3.35;;;22.70;60.60;;;;;;5095561;28;20321;-53
2022/06/08 07:29:39;;;;;;;29.50;3.80;;;22.70;60.80;;;;;;5095627;28;20093;-56
2022/06/08 07:32:05;;;;;;;17.75;3.17;;;22.60;60.70;;;;;;5095025;28;20051;-53
2022/06/08 07:34:31;;;;;;;12.05;2.65;;;22.60;60.60;;;;;;5075685;28;20462;-53
2022/06/08 07:37:00;;;;;;;15.57;2.40;;;22.60;60.70;;;;;;5095353;28;20048;-51
2022/06/08 07:39:26;;;;;;;14.13;2.30;;;22.50;60.50;;;;;;5076958;28;20050;-54
2022/06/08 07:41:55;;;;;;;17.70;2.83;;;22.50;60.60;;;;;;5094479;28;20466;-58
2022/06/08 07:44:20;;;;;;;19.95;3.72;;;22.50;60.70;;;;;;5094914;28;20020;-53
2022/06/08 07:46:46;;;;;;;10.90;2.60;;;22.50;60.60;;;;;;5094391;28;20012;-54
2022/06/08 07:51:58;;;;;;;17.27;2.85;;;22.40;60.40;;;;;;5094108;28;20039;-54
2022/06/08 07:54:24;;;;;;;18.05;2.88;;;22.40;60.40;;;;;;5094584;28;20017;-55
2022/06/08 07:56:51;;;;;;;20.38;2.80;;;22.40;60.30;;;;;;5076188;28;20478;-53
2022/06/08 07:59:18;;;;;;;11.07;2.67;;;22.40;60.30;;;;;;5094241;28;20028;-55
2022/06/08 08:01:44;;;;;;;17.73;3.22;;;22.40;60.30;;;;;;5076102;28;20024;-53
2022/06/08 08:04:10;;;;;;;17.63;2.53;;;22.30;60.30;;;;;;5094858;28;20081;-53
2022/06/08 08:06:36;;;;;;;12.98;2.08;;;22.30;60.30;;;;;;5094643;28;20032;-53
2022/06/08 08:09:03;;;;;;;15.82;2.92;;;22.30;60.30;;;;;;5095193;28;20027;-53
2022/06/08 08:11:29;;;;;;;17.00;2.83;;;22.30;60.30;;;;;;5095473;28;20081;-53
2022/06/08 08:13:54;;;;;;;15.70;2.75;;;22.30;60.20;;;;;;5076093;28;20020;-54
2022/06/08 08:16:20;;;;;;;15.35;2.58;;;22.30;60.20;;;;;;5092848;28;20191;-52
2022/06/08 08:18:46;;;;;;;11.35;2.20;;;22.30;60.40;;;;;;5093274;28;20107;-58
2022/06/08 08:21:14;;;;;;;12.50;2.17;;;22.20;60.40;;;;;;5075610;28;20012;-58
2022/06/08 08:23:40;;;;;;;9.55;2.42;;;21.80;63.10;;;;;;5074987;28;20043;-59
2022/06/08 08:26:05;;;;;;;10.50;2.30;;;22.10;64.50;;;;;;5094639;28;20046;-59
2022/06/08 08:28:31;;;;;;;11.07;2.20;;;22.40;64.30;;;;;;5093997;28;20538;-59
2022/06/08 08:30:58;;;;;;;10.80;2.10;;;22.70;64.50;;;;;;5093629;28;20483;-59
2022/06/08 08:33:24;;;;;;;9.63;2.20;;;22.80;64.60;;;;;;5094231;28;20020;-58
2022/06/08 08:35:52;;;;;;;13.18;2.30;;;22.90;64.90;;;;;;5093882;28;20445;-58
2022/06/08 08:38:19;;;;;;;16.92;1.90;;;23.00;65.10;;;;;;5095036;28;20056;-60
2022/06/08 08:40:57;;;;;;;7.78;1.67;;;23.00;64.90;;;;;;5094007;28;20095;-59
2022/06/08 08:43:25;;;;;;;7.97;1.88;;;23.10;65.00;;;;;;5058942;28;20023;-58
2022/06/08 08:46:11;;;;;;;9.80;2.20;;;23.20;65.10;;;;;;5075650;28;20016;-59
2022/06/08 08:49:06;;;;;;;8.70;2.20;;;23.30;64.80;;;;;;5093018;28;20022;-59
2022/06/08 08:51:40;;;;;;;9.63;2.17;;;23.30;64.80;;;;;;5073900;28;20024;-59
2022/06/08 08:54:24;;;;;;;9.95;2.20;;;23.40;64.60;;;;;;5076111;28;20477;-59
2022/06/08 08:56:53;;;;;;;7.55;1.80;;;23.40;64.40;;;;;;5093364;28;20016;-58
2022/06/08 08:59:20;;;;;;;7.88;2.22;;;23.40;64.20;;;;;;5074443;28;20020;-59
2022/06/08 09:01:48;;;;;;;9.40;2.13;;;23.40;64.10;;;;;;5074937;28;20032;-57
2022/06/08 09:04:25;;;;;;;9.05;1.90;;;23.50;64.10;;;;;;5093451;28;20020;-57
2022/06/08 09:06:51;;;;;;;9.40;2.00;;;23.50;63.80;;;;;;5092859;28;20004;-57
2022/06/08 09:09:23;;;;;;;8.95;2.28;;;23.50;63.70;;;;;;5092158;28;20059;-59
2022/06/08 09:11:49;;;;;;;9.73;2.03;;;23.50;63.20;;;;;;5074649;28;20012;-59
2022/06/08 09:14:23;;;;;;;8.32;1.88;;;23.20;62.20;;;;;;5093431;28;20051;-58
2022/06/08 09:17:09;;;;;;;7.10;1.80;;;22.90;61.80;;;;;;5093570;28;20016;-60
2022/06/08 09:19:41;;;;;;;10.50;2.13;;;22.80;61.80;;;;;;5094099;28;20027;-59
2022/06/08 09:22:06;;;;;;;9.85;1.85;;;22.70;61.70;;;;;;5092833;28;20047;-60
2022/06/08 09:24:46;;;;;;;8.38;1.70;;;22.60;61.10;;;;;;5092688;28;20543;-60
2022/06/08 09:27:24;;;;;;;7.22;1.67;;;22.60;60.80;;;;;;5075268;28;20082;-60
2022/06/08 09:30:05;;;;;;;6.72;1.30;;;22.60;60.60;;;;;;5092681;28;20016;-60
2022/06/08 09:32:33;;;;;;;6.95;1.95;;;22.50;60.80;;;;;;5092823;28;20024;-59
2022/06/08 09:35:15;;;;;;;5.50;1.40;;;22.50;60.50;;;;;;5074769;28;20077;-60
2022/06/08 09:37:40;;;;;;;;;;;22.50;60.70;;;;;;5093128;28;20055;-58
2022/06/08 09:40:36;;;;;;;5.05;1.63;;;22.50;60.40;;;;;;5092187;28;19943;-57
2022/06/08 09:43:38;;;;;;;8.02;1.92;;;22.40;60.30;;;;;;5063099;28;20103;-58
2022/06/08 09:46:06;;;;;;;4.22;1.52;;;22.40;60.40;;;;;;5074682;28;20020;-58
2022/06/08 09:51:56;;;;;;;6.10;1.65;;;22.40;60.30;;;;;;5092073;28;20035;-58
2022/06/08 09:54:39;;;;;;;6.30;1.75;;;22.40;60.30;;;;;;5091984;28;20130;-58
2022/06/08 09:57:26;;;;;;;6.03;1.75;;;22.40;60.30;;;;;;5092015;28;20110;-58
2022/06/08 09:59:55;;;;;;;4.95;1.45;;;22.40;60.30;;;;;;5092459;28;20020;-58
2022/06/08 10:02:44;;;;;;;7.07;1.50;;;22.40;60.20;;;;;;5093494;28;20032;-58
2022/06/08 10:05:37;;;;;;;6.25;1.75;;;22.40;60.30;;;;;;5080753;28;20063;-59
2022/06/08 10:08:26;;;;;;;5.85;1.50;;;22.40;60.20;;;;;;5076388;28;20016;-59
2022/06/08 10:11:57;;;;;;;5.93;1.50;;;22.40;60.80;;;;;;5076655;28;20012;-60
2022/06/08 10:14:49;;;;;;;5.45;1.80;;;22.40;60.20;;;;;;5084576;28;20047;-59
2022/06/08 10:17:21;;;;;;;3.90;1.40;;;22.40;60.20;;;;;;5090735;28;20091;-59
2022/06/08 10:20:02;;;;;;;4.10;1.40;;;22.30;60.20;;;;;;5077920;28;20351;-59
2022/06/08 10:22:30;;;;;;;4.72;1.50;;;22.40;60.20;;;;;;5095479;28;20067;-59
2022/06/08 10:25:14;;;;;;;4.25;1.58;;;22.30;60.10;;;;;;5095271;28;20008;-59
2022/06/08 10:27:45;;;;;;;5.03;1.60;;;22.30;60.20;;;;;;5076901;28;20024;-61
2022/06/08 10:30:21;;;;;;;5.28;1.70;;;22.30;60.20;;;;;;5060617;28;20459;-59
2022/06/08 10:32:47;;;;;;;6.63;1.80;;;22.30;60.20;;;;;;5061278;28;20518;-60
2022/06/08 10:35:36;;;;;;;8.55;1.70;;;22.30;60.10;;;;;;5098735;28;20039;-59
2022/06/08 10:38:03;;;;;;;3.75;1.42;;;22.30;60.10;;;;;;5081311;28;20091;-60
2022/06/08 10:40:47;;;;;;;5.40;1.40;;;22.30;60.10;;;;;;5098969;28;20012;-61
2022/06/08 10:43:21;;;;;;;6.43;1.67;;;22.30;60.10;;;;;;5099131;28;20020;-60
2022/06/08 10:45:56;;;;;;;4.10;1.60;;;22.30;60.10;;;;;;5082444;28;20008;-60
2022/06/08 10:48:35;;;;;;;4.05;1.45;;;22.30;60.10;;;;;;5081289;28;20024;-60
2022/06/08 10:51:25;;;;;;;6.65;1.38;;;22.30;60.00;;;;;;5099602;28;20467;-61
2022/06/08 10:56:38;;;;;;;5.07;1.55;;;22.30;60.00;;;;;;5085376;28;20027;-61
2022/06/08 10:59:03;;;;;;;4.75;1.48;;;22.30;60.00;;;;;;5100703;28;20020;-60
2022/06/08 11:01:51;;;;;;;4.32;1.50;;;22.20;60.00;;;;;;5100376;28;20046;-61
2022/06/08 11:04:32;;;;;;;4.28;1.45;;;22.20;59.90;;;;;;5081466;28;20016;-60
2022/06/08 11:07:04;;;;;;;3.38;1.30;;;22.20;60.00;;;;;;5098793;28;20083;-60
2022/06/08 11:09:33;;;;;;;5.30;1.40;;;22.30;60.00;;;;;;5098980;28;20042;-60
2022/06/08 11:12:21;;;;;;;3.60;1.25;;;22.20;59.90;;;;;;5098752;28;20428;-61
2022/06/08 11:14:52;;;;;;;3.75;1.20;;;22.20;59.90;;;;;;5080302;28;20065;-60
2022/06/08 11:17:39;;;;;;;8.23;1.85;;;22.20;59.80;;;;;;5097613;28;20050;-60
2022/06/08 11:20:35;;;;;;;3.03;1.15;;;22.20;59.90;;;;;;5097506;28;20012;-60
2022/06/08 11:23:23;;;;;;;2.92;1.30;;;22.20;59.80;;;;;;5097183;28;20044;-60
2022/06/08 11:25:52;;;;;;;2.83;1.10;;;22.20;59.80;;;;;;5098186;28;20012;-58
2022/06/08 11:28:28;;;;;;;2.33;1.15;;;22.20;59.70;;;;;;5098351;28;20066;-60
2022/06/08 11:30:56;;;;;;;3.78;1.48;;;22.20;59.80;;;;;;5098203;28;20017;-60
2022/06/08 11:33:22;;;;;;;3.38;1.00;;;22.20;59.80;;;;;;5098357;28;20030;-60
2022/06/08 11:36:13;;;;;;;5.13;1.45;;;22.20;60.40;;;;;;5098037;28;20024;-60
2022/06/08 11:39:14;;;;;;;4.03;1.60;;;22.20;59.80;;;;;;5098032;28;20012;-61
2022/06/08 11:41:41;;;;;;;4.38;1.38;;;22.20;59.80;;;;;;5059180;28;20029;-60
2022/06/08 11:44:17;;;;;;;3.60;1.05;;;22.20;59.70;;;;;;5080951;28;20028;-60
2022/06/08 11:46:50;;;;;;;4.38;0.93;;;22.20;59.70;;;;;;5099732;28;20097;-60
2022/06/08 11:49:30;;;;;;;2.38;1.00;;;22.20;59.80;;;;;;5097933;28;20016;-62
2022/06/08 11:51:56;;;;;;;3.75;1.27;;;22.20;59.80;;;;;;5098826;28;20058;-61
2022/06/08 11:54:33;;;;;;;4.70;1.20;;;22.20;59.70;;;;;;5081119;28;20024;-60
2022/06/08 11:57:16;;;;;;;3.90;1.20;;;22.20;59.70;;;;;;5098121;28;20020;-60
2022/06/08 11:59:44;;;;;;;3.75;1.30;;;22.20;59.70;;;;;;5098301;28;20023;-60
2022/06/08 12:02:23;;;;;;;3.63;1.00;;;22.20;59.70;;;;;;5080544;28;20028;-60
2022/06/08 12:04:54;;;;;;;2.75;1.15;;;22.20;59.70;;;;;;5097553;28;20020;-61
2022/06/08 12:07:43;;;;;;;3.10;1.13;;;22.20;59.80;;;;;;5079873;28;20028;-61
2022/06/08 12:10:18;;;;;;;4.28;1.30;;;22.20;59.70;;;;;;5085048;28;20085;-61
2022/06/08 12:12:44;;;;;;;3.20;1.10;;;22.20;59.70;;;;;;5063527;28;20359;-61
2022/06/08 12:15:38;;;;;;;3.03;1.27;;;22.20;59.70;;;;;;5079466;28;20027;-61
2022/06/08 12:18:21;;;;;;;3.42;1.35;;;22.20;59.70;;;;;;5081021;28;20028;-61
2022/06/08 12:20:50;;;;;;;4.03;1.33;;;22.20;59.60;;;;;;5098052;28;20098;-60
2022/06/08 12:23:16;;;;;;;3.50;1.20;;;22.20;59.60;;;;;;5097265;28;20040;-60
2022/06/08 12:25:41;;;;;;;3.65;1.20;;;22.20;59.60;;;;;;5062233;28;20027;-61
2022/06/08 12:28:09;;;;;;;4.88;1.20;;;22.20;59.70;;;;;;5062444;28;20514;-60
2022/06/08 12:30:44;;;;;;;2.40;0.95;;;22.20;59.70;;;;;;5097352;28;20019;-61
2022/06/08 12:33:18;;;;;;;2.83;1.08;;;22.20;59.70;;;;;;5079255;28;20084;-59
2022/06/08 12:36:07;;;;;;;3.28;1.27;;;22.20;59.70;;;;;;5097968;28;20031;-61
2022/06/08 12:38:34;;;;;;;4.03;1.30;;;22.20;59.70;;;;;;5079794;28;20012;-61
2022/06/08 12:41:08;;;;;;;2.25;1.10;;;22.20;59.70;;;;;;5098104;28;20020;-60
2022/06/08 12:43:46;;;;;;;4.20;1.10;;;22.20;59.80;;;;;;5097202;28;20032;-60
2022/06/08 12:46:20;;;;;;;4.10;1.27;;;22.20;59.80;;;;;;5097801;28;20020;-60
2022/06/08 12:48:48;;;;;;;2.47;0.98;;;22.20;59.80;;;;;;5097698;28;20012;-61
2022/06/08 12:51:29;;;;;;;5.03;1.30;;;22.20;59.80;;;;;;5097606;28;20012;-60
2022/06/08 12:53:55;;;;;;;2.70;1.00;;;22.20;59.80;;;;;;5097498;28;20020;-61
2022/06/08 12:56:22;;;;;;;4.72;1.20;;;22.20;59.70;;;;;;5096406;28;20490;-59
2022/06/08 12:58:52;;;;;;;2.92;1.20;;;22.20;59.90;;;;;;5097211;28;20032;-60
2022/06/08 13:01:19;;;;;;;3.30;0.98;;;22.20;59.70;;;;;;5097052;28;20016;-59
2022/06/08 13:03:45;;;;;;;2.92;1.08;;;22.20;59.70;;;;;;5096106;28;20024;-60
2022/06/08 13:06:11;;;;;;;3.17;1.15;;;22.20;59.60;;;;;;5095433;28;20016;-60
2022/06/08 13:08:38;;;;;;;2.25;0.90;;;22.20;59.60;;;;;;5094966;28;20012;-60
2022/06/08 13:11:07;;;;;;;5.85;1.67;;;22.20;59.60;;;;;;5077133;28;20016;-60
2022/06/08 13:13:36;;;;;;;3.13;1.40;;;22.20;59.60;;;;;;5077729;28;20065;-60
2022/06/08 13:16:03;;;;;;;2.83;1.20;;;22.20;59.60;;;;;;5096807;28;20016;-60
2022/06/08 13:18:29;;;;;;;3.67;1.20;;;22.20;59.60;;;;;;5097080;28;20009;-61